Time;durP1;ratioP1;P1;durP2;ratioP2;P2;SDS_P1;SDS_P2;PMS_P1;PMS_P2;Temp;Humidity;BMP_temperature;BMP_pressure;BME280_temperature;BME280_humidity;BME280_pressure;Samples;Min_cycle;Max_cycle;Signal;HPM_P1;HPM_P2
2021/05/26 00:00:09;;;;;;;4.35;1.45;;;;;;;7.05;75.40;93200.13;2095904;28;20075;-87
2021/05/26 00:01:10;;;;;;;3.88;1.00;;;;;;;7.17;75.41;93193.59;2099655;28;20036;-87
2021/05/26 00:02:11;;;;;;;8.38;1.23;;;;;;;7.14;75.39;93190.97;2107164;28;20446;-87
2021/05/26 00:03:11;;;;;;;2.72;1.00;;;;;;;7.12;76.13;93187.94;2107275;28;20039;-84
2021/05/26 00:04:12;;;;;;;4.15;1.20;;;;;;;7.19;74.34;93193.19;2115605;28;20015;-86
2021/05/26 00:05:13;;;;;;;5.38;1.20;;;;;;;7.24;75.20;93190.09;2105793;28;20139;-85
2021/05/26 00:06:14;;;;;;;4.07;1.10;;;;;;;7.26;75.24;93187.81;2107251;28;20114;-85
2021/05/26 00:07:15;;;;;;;4.55;1.30;;;;;;;7.21;75.25;93185.59;2108389;28;20020;-86
2021/05/26 00:08:29;;;;;;;3.13;1.23;;;;;;;7.22;75.50;93195.81;2107332;28;20028;-84
2021/05/26 00:09:29;;;;;;;9.07;1.50;;;;;;;7.20;74.46;93194.69;2101312;28;20051;-84
2021/05/26 00:10:30;;;;;;;3.72;1.13;;;;;;;7.17;74.06;93198.16;2106387;28;20028;-85
2021/05/26 00:11:31;;;;;;;4.85;1.15;;;;;;;7.11;75.01;93194.38;2106320;28;20043;-88
2021/05/26 00:12:31;;;;;;;7.53;1.65;;;;;;;7.13;74.79;93192.88;2106287;28;20035;-86
2021/05/26 00:13:33;;;;;;;3.22;1.05;;;;;;;7.15;74.70;93184.50;2114056;28;20108;-86
2021/05/26 00:14:34;;;;;;;4.20;1.27;;;;;;;7.14;75.87;93185.63;2105947;28;20103;-86
2021/05/26 00:15:34;;;;;;;3.97;1.10;;;;;;;7.11;75.89;93178.44;2098117;28;20162;-86
2021/05/26 00:16:37;;;;;;;3.47;1.10;;;;;;;7.10;76.79;93180.34;2097902;28;20129;-86
2021/05/26 00:17:38;;;;;;;3.60;1.60;;;;;;;7.16;75.88;93186.03;2098490;28;20776;-88
2021/05/26 00:18:40;;;;;;;5.05;1.20;;;;;;;7.16;75.74;93183.38;2105938;28;20024;-87
2021/05/26 00:19:43;;;;;;;5.38;1.65;;;;;;;7.19;75.44;93193.94;2110230;28;20028;-87
2021/05/26 00:20:44;;;;;;;3.53;1.13;;;;;;;7.17;75.98;93190.94;2100225;28;20477;-86
2021/05/26 00:21:45;;;;;;;5.55;1.40;;;;;;;7.10;75.78;93190.97;2106410;28;20020;-88
2021/05/26 00:22:46;;;;;;;3.80;1.35;;;;;;;7.10;76.38;93179.59;2114528;28;20024;-88
2021/05/26 00:23:46;;;;;;;6.13;1.20;;;;;;;7.12;76.87;93185.28;2106008;28;20028;-86
2021/05/26 00:24:47;;;;;;;6.65;1.30;;;;;;;7.05;77.13;93178.88;2105679;28;20020;-86
2021/05/26 00:25:48;;;;;;;8.13;1.30;;;;;;;7.06;76.51;93180.38;2105711;28;20027;-86
2021/05/26 00:26:49;;;;;;;5.95;1.30;;;;;;;7.10;77.96;93184.91;2106253;28;20020;-87
2021/05/26 00:27:57;;;;;;;7.90;1.30;;;;;;;7.11;77.41;93175.78;2096011;28;20029;-87
2021/05/26 00:28:58;;;;;;;4.90;1.05;;;;;;;7.12;77.41;93177.31;2101354;28;20393;-85
2021/05/26 00:29:59;;;;;;;5.22;1.20;;;;;;;7.04;77.65;93165.97;2097883;28;20031;-86
2021/05/26 00:31:00;;;;;;;5.85;1.23;;;;;;;7.06;77.01;93167.06;2105934;28;20396;-87
2021/05/26 00:32:02;;;;;;;6.50;1.23;;;;;;;7.00;75.85;93175.88;2097889;28;20115;-86
2021/05/26 00:33:03;;;;;;;3.58;0.90;;;;;;;7.03;76.65;93167.13;2098108;28;20039;-87
2021/05/26 00:34:04;;;;;;;3.28;1.55;;;;;;;6.99;77.70;93175.13;2108986;28;20443;-87
2021/05/26 00:35:05;;;;;;;7.88;1.05;;;;;;;6.98;77.74;93178.16;2106199;28;20023;-85
2021/05/26 00:36:06;;;;;;;5.60;1.20;;;;;;;6.99;77.04;93175.13;2105937;28;20104;-86
2021/05/26 00:37:06;;;;;;;6.70;1.33;;;;;;;7.03;77.59;93173.19;2097654;28;20028;-87
2021/05/26 00:38:08;;;;;;;2.45;1.20;;;;;;;7.01;77.50;93169.41;2106110;28;20031;-87
2021/05/26 00:39:09;;;;;;;3.55;1.10;;;;;;;6.97;77.65;93166.03;2105962;28;20031;-87
2021/05/26 00:40:10;;;;;;;6.22;1.10;;;;;;;6.97;77.37;93172.09;2097724;28;20024;-87
2021/05/26 00:41:11;;;;;;;5.80;1.20;;;;;;;6.97;77.25;93163.34;2106164;28;20032;-86
2021/05/26 00:42:19;;;;;;;3.50;1.40;;;;;;;6.99;78.25;93159.19;2106291;28;20027;-87
2021/05/26 00:43:19;;;;;;;4.75;1.10;;;;;;;6.98;76.44;93163.00;2107147;28;20020;-86
2021/05/26 00:44:20;;;;;;;6.43;1.10;;;;;;;7.15;76.10;93174.59;2105801;28;20031;-88
2021/05/26 00:45:21;;;;;;;6.13;1.15;;;;;;;7.07;76.00;93162.53;2104994;28;20047;-87
2021/05/26 00:46:22;;;;;;;2.67;1.00;;;;;;;7.05;77.13;93168.22;2105968;28;20024;-88
2021/05/26 00:47:38;;;;;;;4.85;1.23;;;;;;;7.01;76.32;93161.44;2103330;28;20028;-86
2021/05/26 00:48:39;;;;;;;4.43;0.98;;;;;;;6.96;76.86;93169.81;2115674;27;20058;-86
2021/05/26 00:49:39;;;;;;;6.43;1.30;;;;;;;7.04;75.42;93155.34;2105720;28;20731;-87
2021/05/26 00:50:40;;;;;;;4.10;1.17;;;;;;;7.12;75.61;93164.03;2097584;28;20542;-87
2021/05/26 00:51:41;;;;;;;4.47;1.38;;;;;;;7.17;76.10;93158.28;2105804;28;20381;-87
2021/05/26 00:52:42;;;;;;;6.20;1.33;;;;;;;7.11;76.77;93160.59;2106041;28;20778;-88
2021/05/26 00:53:43;;;;;;;4.22;1.20;;;;;;;7.07;76.12;93159.88;2097393;28;20489;-89
2021/05/26 00:54:44;;;;;;;6.55;1.58;;;;;;;7.08;76.28;93153.41;2097777;28;20027;-88
2021/05/26 00:55:45;;;;;;;3.25;1.25;;;;;;;7.13;77.04;93154.91;2105904;28;20024;-87
2021/05/26 00:56:48;;;;;;;3.60;1.10;;;;;;;7.05;76.43;93157.59;2114517;28;20026;-88
2021/05/26 00:57:50;;;;;;;8.93;1.10;;;;;;;6.99;77.86;93153.13;2107081;28;20381;-87
2021/05/26 00:58:51;;;;;;;4.40;1.13;;;;;;;6.94;77.29;93146.31;2106182;28;20023;-87
2021/05/26 00:59:52;;;;;;;4.85;1.35;;;;;;;6.94;76.97;93154.28;2105863;28;20051;-89
2021/05/26 01:00:53;;;;;;;4.38;1.00;;;;;;;6.91;77.71;93152.41;2106011;28;20030;-87
2021/05/26 01:01:53;;;;;;;3.53;1.45;;;;;;;6.89;77.82;93141.41;2110437;28;20035;-87
2021/05/26 01:02:54;;;;;;;6.10;1.42;;;;;;;6.97;76.87;93137.53;2101782;28;20111;-86
2021/05/26 01:03:56;;;;;;;4.32;1.10;;;;;;;6.99;77.13;93143.22;2108473;28;20046;-87
2021/05/26 01:04:57;;;;;;;4.07;1.17;;;;;;;6.96;77.25;93130.72;2103506;28;20121;-88
2021/05/26 01:05:58;;;;;;;6.78;1.40;;;;;;;7.05;78.47;93140.91;2096868;28;20054;-87
2021/05/26 01:06:58;;;;;;;6.78;1.40;;;;;;;7.03;77.79;93143.22;2101661;28;20028;-88
2021/05/26 01:08:00;;;;;;;2.53;1.10;;;;;;;6.95;76.97;93129.22;2125257;27;20134;-87
2021/05/26 01:09:00;;;;;;;6.85;1.52;;;;;;;6.84;77.69;93139.16;2114234;28;20472;-87
2021/05/26 01:10:02;;;;;;;5.68;1.30;;;;;;;6.88;77.71;93129.25;2114089;28;20035;-86
2021/05/26 01:11:05;;;;;;;2.35;1.13;;;;;;;6.78;78.66;93128.19;2117370;27;20150;-87
2021/05/26 01:12:06;;;;;;;3.00;1.30;;;;;;;6.79;78.54;93127.06;2111223;28;20039;-87
2021/05/26 01:13:09;;;;;;;5.57;1.40;;;;;;;6.75;78.36;93128.22;2097423;28;20520;-90
2021/05/26 01:14:10;;;;;;;4.93;1.00;;;;;;;6.72;78.27;93118.41;2105972;27;20033;-86
2021/05/26 01:15:13;;;;;;;4.85;1.00;;;;;;;6.72;78.35;93123.72;2114120;28;20024;-87
2021/05/26 01:16:13;;;;;;;3.85;1.15;;;;;;;6.70;79.35;93125.97;2102571;28;20024;-87
2021/05/26 01:17:14;;;;;;;6.88;1.23;;;;;;;6.59;79.99;93110.13;2114677;28;20030;-86
2021/05/26 01:18:24;;;;;;;4.28;1.10;;;;;;;6.63;79.47;93113.53;2108512;28;20495;-87
2021/05/26 01:19:25;;;;;;;5.45;1.10;;;;;;;6.58;79.58;93111.25;2105232;27;20028;-88
2021/05/26 01:20:28;;;;;;;7.32;1.20;;;;;;;6.56;79.62;93116.97;2118080;27;20031;-86
2021/05/26 01:21:28;;;;;;;4.68;1.10;;;;;;;6.48;80.77;93123.47;2114208;28;20723;-89
2021/05/26 01:22:30;;;;;;;5.65;1.17;;;;;;;6.51;80.41;93108.66;2105213;28;20023;-86
2021/05/26 01:23:31;;;;;;;2.38;1.05;;;;;;;6.51;80.88;93111.31;2111577;28;20400;-87
2021/05/26 01:24:32;;;;;;;2.63;1.10;;;;;;;6.43;80.32;93121.22;2105012;28;20051;-86
2021/05/26 01:25:33;;;;;;;3.83;1.02;;;;;;;6.60;79.00;93116.19;2100968;28;20024;-86
2021/05/26 01:26:34;;;;;;;5.18;1.42;;;;;;;6.63;78.85;93105.56;2097265;28;20048;-85
2021/05/26 01:27:35;;;;;;;4.72;1.00;;;;;;;6.57;78.38;93107.09;2104859;28;20065;-86
2021/05/26 01:28:37;;;;;;;2.95;1.15;;;;;;;6.52;77.85;93102.97;2097322;28;20025;-87
2021/05/26 01:29:38;;;;;;;6.60;1.45;;;;;;;6.55;78.93;93101.44;2114316;27;20031;-90
2021/05/26 01:30:39;;;;;;;4.15;1.27;;;;;;;6.56;78.39;93097.63;2117337;27;20032;-88
2021/05/26 01:31:39;;;;;;;6.95;1.48;;;;;;;6.61;77.81;93099.88;2100999;28;20078;-86
2021/05/26 01:32:46;;;;;;;5.88;1.40;;;;;;;6.65;77.56;93099.84;2110825;28;20038;-88
2021/05/26 01:33:46;;;;;;;7.18;1.48;;;;;;;6.83;77.42;93105.78;2108045;27;20468;-87
2021/05/26 01:34:47;;;;;;;6.88;1.70;;;;;;;6.83;77.32;93105.78;2106738;28;20032;-85
2021/05/26 01:35:48;;;;;;;5.22;1.30;;;;;;;6.88;76.63;93101.94;2113374;28;20815;-89
2021/05/26 01:36:49;;;;;;;3.22;1.55;;;;;;;6.95;76.30;93100.00;2109872;28;20035;-87
2021/05/26 01:37:50;;;;;;;7.10;1.58;;;;;;;6.98;75.85;93099.22;2099587;28;20028;-86
2021/05/26 01:38:50;;;;;;;5.60;1.13;;;;;;;6.94;76.36;93103.81;2108609;28;20058;-87
2021/05/26 01:39:51;;;;;;;6.68;1.23;;;;;;;6.96;77.34;93098.84;2107233;28;20033;-88
2021/05/26 01:41:01;;;;;;;5.60;1.30;;;;;;;6.95;77.50;93100.00;2103734;28;20024;-86
2021/05/26 01:42:01;;;;;;;3.97;1.15;;;;;;;6.98;76.46;93104.53;2108209;27;20400;-85
2021/05/26 01:43:02;;;;;;;9.32;1.48;;;;;;;7.02;77.04;93099.16;2108745;28;20046;-87
2021/05/26 01:44:04;;;;;;;10.00;1.70;;;;;;;7.12;77.17;93100.25;2099235;28;20023;-86
2021/05/26 01:45:08;;;;;;;6.20;1.42;;;;;;;7.08;77.12;93097.59;2105634;28;20027;-89
2021/05/26 01:46:09;;;;;;;6.05;1.25;;;;;;;7.04;79.29;93096.88;2107521;28;20540;-89
2021/05/26 01:47:10;;;;;;;7.78;1.58;;;;;;;7.00;80.35;93096.91;2105707;28;20020;-87
2021/05/26 01:48:11;;;;;;;5.32;1.20;;;;;;;7.10;79.53;93099.84;2113855;28;20015;-86
2021/05/26 01:49:12;;;;;;;5.60;1.35;;;;;;;7.11;79.45;93094.13;2113693;28;20030;-86
2021/05/26 01:50:21;;;;;;;6.13;1.60;;;;;;;7.05;80.48;93096.47;2105842;28;20031;-87
2021/05/26 01:51:22;;;;;;;6.55;1.60;;;;;;;6.98;82.87;93098.44;2108494;28;20036;-86
2021/05/26 01:52:23;;;;;;;8.20;1.48;;;;;;;6.99;83.03;93098.06;2105595;28;20114;-86
2021/05/26 01:53:26;;;;;;;12.43;1.77;;;;;;;7.00;82.52;93101.47;2105574;28;20031;-86
2021/05/26 01:54:27;;;;;;;10.52;1.60;;;;;;;6.91;84.08;93099.25;2114835;27;20656;-86
2021/05/26 01:55:28;;;;;;;8.05;1.60;;;;;;;6.85;82.84;93074.28;2120246;27;20131;-85
2021/05/26 01:56:30;;;;;;;10.25;1.77;;;;;;;6.94;83.93;93081.78;2118192;28;20089;-86
2021/05/26 01:57:31;;;;;;;3.90;1.40;;;;;;;7.13;80.06;93080.47;2113442;27;20015;-86
2021/05/26 01:58:32;;;;;;;5.50;1.48;;;;;;;6.99;82.76;93078.72;2101227;28;20035;-87
2021/05/26 01:59:32;;;;;;;10.57;1.88;;;;;;;6.90;83.80;93081.81;2115093;27;20032;-87
2021/05/26 02:00:34;;;;;;;7.97;1.42;;;;;;;6.90;83.58;93087.13;2109595;28;20034;-86
2021/05/26 02:01:35;;;;;;;5.50;1.52;;;;;;;6.88;84.24;93084.09;2102441;28;20457;-86
2021/05/26 02:02:35;;;;;;;6.72;2.00;;;;;;;6.82;85.52;93077.72;2113732;28;20035;-86
2021/05/26 02:03:43;;;;;;;6.43;1.70;;;;;;;6.76;87.11;93082.69;2121475;28;20507;-85
2021/05/26 02:04:44;;;;;;;6.95;1.70;;;;;;;6.77;87.99;93084.19;2106838;28;20166;-88
2021/05/26 02:05:45;;;;;;;11.73;1.80;;;;;;;6.80;86.18;93082.63;2105388;28;20444;-87
2021/05/26 02:07:01;;;;;;;6.25;1.45;;;;;;;6.73;88.20;93088.03;2106767;28;20617;-87
2021/05/26 02:08:02;;;;;;;9.18;1.70;;;;;;;6.69;89.17;93077.41;2115680;27;20031;-89
2021/05/26 02:09:03;;;;;;;5.93;1.88;;;;;;;6.65;90.35;93079.34;2108636;28;20186;-87
2021/05/26 02:10:06;;;;;;;8.57;2.30;;;;;;;6.63;90.00;93086.19;2098751;28;20028;-86
2021/05/26 02:12:32;;;;;;;;;;;;;;;6.63;90.11;93081.66;2109861;28;20023;-87
2021/05/26 02:13:33;;;;;;;5.40;1.42;;;;;;;6.56;91.97;93090.41;2109142;28;20280;-86
2021/05/26 02:14:34;;;;;;;9.05;1.70;;;;;;;6.66;91.16;93088.81;2114095;28;20024;-87
2021/05/26 02:15:34;;;;;;;6.65;1.90;;;;;;;6.64;91.54;93093.03;2105659;28;20020;-88
2021/05/26 02:16:36;;;;;;;10.25;1.80;;;;;;;6.61;92.42;93097.22;2105894;28;20058;-88
2021/05/26 02:17:37;;;;;;;7.07;1.70;;;;;;;6.52;92.94;93081.72;2114232;28;20067;-86
2021/05/26 02:18:38;;;;;;;3.17;1.35;;;;;;;6.60;87.79;93089.66;2112655;28;20027;-85
2021/05/26 02:19:39;;;;;;;6.60;1.50;;;;;;;6.59;89.52;93088.88;2106846;28;20028;-86
2021/05/26 02:20:40;;;;;;;6.93;1.77;;;;;;;6.52;91.20;93094.25;2105608;28;20468;-91
2021/05/26 02:21:40;;;;;;;4.30;1.42;;;;;;;6.51;91.61;93098.03;2117577;28;20051;-87
2021/05/26 02:22:41;;;;;;;9.23;1.80;;;;;;;6.55;90.38;93093.47;2113938;28;20076;-89
2021/05/26 02:23:42;;;;;;;8.52;1.65;;;;;;;6.44;89.15;93090.88;2096550;28;20624;-87
2021/05/26 02:24:44;;;;;;;7.57;1.40;;;;;;;6.43;89.57;93086.72;2096854;28;20082;-87
2021/05/26 02:25:44;;;;;;;6.30;2.20;;;;;;;6.45;89.97;93079.13;2110051;27;20030;-88
2021/05/26 02:26:45;;;;;;;5.43;1.90;;;;;;;6.57;88.29;93083.94;2108212;28;20575;-86
2021/05/26 02:27:46;;;;;;;8.15;1.77;;;;;;;6.53;88.89;93091.19;2099614;28;20055;-87
2021/05/26 02:28:46;;;;;;;6.57;1.52;;;;;;;6.56;89.05;93092.31;2105318;28;20129;-88
2021/05/26 02:29:47;;;;;;;5.65;2.40;;;;;;;6.57;89.33;93091.16;2096053;28;20094;-87
2021/05/26 02:30:48;;;;;;;5.30;1.80;;;;;;;6.43;89.19;93085.97;2106188;28;20028;-88
2021/05/26 02:31:48;;;;;;;11.05;1.85;;;;;;;6.46;90.19;93082.53;2108907;28;20039;-87
2021/05/26 02:32:49;;;;;;;7.55;1.67;;;;;;;6.40;90.26;93092.78;2099070;28;20102;-87
2021/05/26 02:33:50;;;;;;;6.85;1.60;;;;;;;6.38;90.06;93095.09;2101554;28;20074;-87
2021/05/26 02:34:51;;;;;;;5.57;1.55;;;;;;;6.34;91.09;93097.00;2101337;28;20052;-87
2021/05/26 02:35:51;;;;;;;7.35;1.50;;;;;;;6.21;92.47;93093.31;2106950;27;20034;-87
2021/05/26 02:36:52;;;;;;;5.22;1.60;;;;;;;6.25;92.86;93099.34;2121975;28;20098;-86
2021/05/26 02:37:53;;;;;;;7.72;1.70;;;;;;;6.24;92.93;93089.88;2114083;28;20039;-88
2021/05/26 02:38:54;;;;;;;7.05;1.70;;;;;;;6.16;93.87;93083.84;2098417;28;20027;-88
2021/05/26 02:39:54;;;;;;;12.57;2.22;;;;;;;6.18;93.62;93091.41;2097898;28;20143;-87
2021/05/26 02:40:55;;;;;;;6.30;1.70;;;;;;;6.09;94.62;93085.78;2105616;28;20031;-89
2021/05/26 02:41:56;;;;;;;8.38;1.50;;;;;;;6.17;93.90;93085.34;2123661;27;20377;-87
2021/05/26 02:42:57;;;;;;;6.38;1.80;;;;;;;6.24;91.92;93076.59;2113893;28;20035;-88
2021/05/26 02:43:57;;;;;;;6.97;1.55;;;;;;;6.13;93.82;93081.22;2105451;28;20024;-88
2021/05/26 02:44:58;;;;;;;6.18;1.70;;;;;;;6.10;94.02;93076.66;2105544;28;20078;-87
2021/05/26 02:45:59;;;;;;;3.70;1.30;;;;;;;5.97;93.37;93071.81;2105445;28;20024;-86
2021/05/26 02:47:00;;;;;;;2.90;1.50;;;;;;;6.00;93.94;93070.28;2095005;28;20039;-86
2021/05/26 02:48:00;;;;;;;4.80;1.60;;;;;;;5.98;94.84;93073.34;2097295;28;20086;-87
2021/05/26 02:49:02;;;;;;;6.05;1.40;;;;;;;5.96;94.04;93078.25;2113511;28;20459;-87
2021/05/26 02:50:03;;;;;;;5.60;1.30;;;;;;;5.88;93.57;93078.66;2114863;28;20027;-87
2021/05/26 02:51:04;;;;;;;8.88;1.63;;;;;;;5.92;94.50;93071.47;2111231;28;20034;-86
2021/05/26 02:52:05;;;;;;;5.53;1.58;;;;;;;5.84;95.66;93070.72;2102703;28;20024;-87
2021/05/26 02:53:05;;;;;;;7.50;1.50;;;;;;;5.85;96.15;93064.28;2097200;28;20099;-87
2021/05/26 02:54:07;;;;;;;5.88;2.00;;;;;;;5.85;97.20;93061.63;2098580;28;20055;-86
2021/05/26 02:55:09;;;;;;;7.60;1.52;;;;;;;5.84;97.41;93064.66;2105867;28;20024;-87
2021/05/26 02:56:10;;;;;;;8.18;1.83;;;;;;;5.80;96.95;93067.34;2122411;28;20353;-91
2021/05/26 02:57:11;;;;;;;6.38;1.85;;;;;;;5.80;97.05;93060.13;2105414;28;20077;-87
2021/05/26 02:58:11;;;;;;;7.75;1.60;;;;;;;5.84;97.70;93054.81;2101234;28;20024;-88
2021/05/26 02:59:12;;;;;;;7.38;2.10;;;;;;;5.85;97.52;93058.97;2107056;28;20039;-89
2021/05/26 03:00:14;;;;;;;5.15;1.40;;;;;;;5.84;96.72;93056.69;2105205;28;20534;-88
2021/05/26 03:01:15;;;;;;;5.50;1.40;;;;;;;5.90;96.97;93055.91;2108429;28;20028;-89
2021/05/26 03:02:16;;;;;;;8.23;1.45;;;;;;;5.92;96.92;93056.28;2105441;28;20113;-87
2021/05/26 03:03:16;;;;;;;2.75;1.30;;;;;;;5.84;97.72;93052.16;2105449;28;20030;-88
2021/05/26 03:04:17;;;;;;;2.65;1.23;;;;;;;5.87;97.32;93059.31;2092429;28;20044;-86
2021/05/26 03:05:20;;;;;;;5.68;1.58;;;;;;;5.82;96.64;93051.78;2101592;28;20099;-85
2021/05/26 03:06:21;;;;;;;8.98;1.40;;;;;;;5.92;97.35;93050.22;2098892;28;20027;-88
2021/05/26 03:07:21;;;;;;;7.40;1.50;;;;;;;5.88;97.70;93042.25;2097141;28;20115;-90
2021/05/26 03:08:22;;;;;;;6.40;1.45;;;;;;;5.98;97.11;93046.06;2097062;28;20025;-87
2021/05/26 03:09:23;;;;;;;2.70;1.38;;;;;;;5.97;95.82;93045.28;2106895;28;20028;-87
2021/05/26 03:10:23;;;;;;;6.75;1.58;;;;;;;5.96;95.06;93038.47;2098657;28;20028;-87
2021/05/26 03:11:24;;;;;;;8.00;1.60;;;;;;;5.88;97.54;93038.84;2104977;28;20058;-87
2021/05/26 03:12:25;;;;;;;3.53;1.17;;;;;;;5.89;98.45;93038.50;2098217;28;20024;-87
2021/05/26 03:13:26;;;;;;;7.55;1.60;;;;;;;5.90;97.93;93042.66;2106875;28;20056;-88
2021/05/26 03:14:26;;;;;;;4.90;1.50;;;;;;;5.87;97.10;93042.66;2106903;28;20047;-89
2021/05/26 03:15:27;;;;;;;4.70;1.70;;;;;;;5.85;98.02;93039.66;2114951;28;20070;-88
2021/05/26 03:16:28;;;;;;;10.73;1.63;;;;;;;5.96;96.91;93043.75;2106912;28;20436;-88
2021/05/26 03:17:28;;;;;;;5.60;1.20;;;;;;;5.94;97.43;93040.75;2106945;28;20516;-89
2021/05/26 03:18:29;;;;;;;6.55;1.45;;;;;;;5.85;97.66;93032.44;2128271;27;20027;-87
2021/05/26 03:19:31;;;;;;;7.55;1.50;;;;;;;5.81;98.27;93031.72;2115065;28;20023;-87
2021/05/26 03:20:32;;;;;;;8.95;1.50;;;;;;;5.80;98.43;93036.25;2107033;28;20023;-85
2021/05/26 03:21:33;;;;;;;6.25;1.92;;;;;;;5.77;99.24;93038.94;2106870;28;20442;-87
2021/05/26 03:22:34;;;;;;;7.72;1.50;;;;;;;5.84;99.27;93036.25;2106528;28;20059;-86
2021/05/26 03:23:35;;;;;;;3.70;1.77;;;;;;;5.92;98.05;93029.75;2111892;28;20019;-89
2021/05/26 03:24:36;;;;;;;6.47;1.70;;;;;;;5.90;98.90;93036.59;2100932;28;20028;-89
2021/05/26 03:25:37;;;;;;;4.85;1.60;;;;;;;5.85;99.10;93031.69;2094138;28;20028;-88
2021/05/26 03:26:38;;;;;;;5.00;1.20;;;;;;;5.80;98.05;93027.56;2119697;27;20075;-88
2021/05/26 03:27:39;;;;;;;4.13;1.10;;;;;;;5.83;99.80;93029.41;2098137;28;20035;-88
2021/05/26 03:28:40;;;;;;;6.30;1.30;;;;;;;5.76;100.00;93026.81;2106581;28;20102;-87
2021/05/26 03:29:41;;;;;;;6.97;1.75;;;;;;;5.75;100.00;93019.97;2106638;28;20122;-90
2021/05/26 03:30:43;;;;;;;3.85;1.23;;;;;;;5.79;100.00;93029.44;2114718;28;20046;-87
2021/05/26 03:31:44;;;;;;;7.80;1.40;;;;;;;5.76;100.00;93021.50;2107014;28;20024;-87
2021/05/26 03:32:45;;;;;;;5.68;1.40;;;;;;;5.77;100.00;93020.34;2108637;28;20031;-86
2021/05/26 03:33:46;;;;;;;6.28;1.80;;;;;;;5.79;99.92;93028.66;2112979;28;20551;-88
2021/05/26 03:34:46;;;;;;;5.28;1.45;;;;;;;5.77;100.00;93026.41;2107237;27;20028;-89
2021/05/26 03:35:47;;;;;;;5.38;1.95;;;;;;;5.72;100.00;93028.72;2110554;28;20060;-89
2021/05/26 03:36:48;;;;;;;5.88;1.80;;;;;;;5.72;100.00;93026.06;2111020;28;20020;-89
2021/05/26 03:37:49;;;;;;;3.60;1.23;;;;;;;5.78;100.00;93035.13;2099589;28;20028;-88
2021/05/26 03:38:50;;;;;;;4.97;1.50;;;;;;;5.80;100.00;93024.91;2104832;28;20035;-88
2021/05/26 03:39:50;;;;;;;4.88;1.50;;;;;;;5.69;100.00;93022.28;2107045;28;20121;-88
2021/05/26 03:40:51;;;;;;;5.45;1.40;;;;;;;5.78;100.00;93024.50;2107517;28;20031;-88
2021/05/26 03:41:52;;;;;;;3.78;1.40;;;;;;;5.84;100.00;93017.69;2099496;28;20078;-88
2021/05/26 03:42:53;;;;;;;4.60;1.60;;;;;;;5.80;100.00;93016.94;2100493;28;20540;-86
2021/05/26 03:43:53;;;;;;;6.40;1.90;;;;;;;5.80;100.00;93020.34;2107039;28;20078;-88
2021/05/26 03:44:54;;;;;;;8.30;2.97;;;;;;;5.82;100.00;93019.94;2107491;28;20027;-88
2021/05/26 03:45:55;;;;;;;3.22;1.42;;;;;;;5.87;100.00;93019.53;2108271;28;20023;-88
2021/05/26 03:46:55;;;;;;;10.80;1.77;;;;;;;5.84;100.00;93016.91;2116216;27;20102;-86
2021/05/26 03:47:57;;;;;;;6.60;1.60;;;;;;;5.82;100.00;93015.41;2114935;28;20076;-90
2021/05/26 03:48:58;;;;;;;4.55;1.60;;;;;;;5.77;100.00;93012.41;2115653;27;20031;-90
2021/05/26 03:49:58;;;;;;;7.57;1.77;;;;;;;5.82;100.00;93010.09;2106752;28;20016;-90
2021/05/26 03:50:59;;;;;;;10.82;1.90;;;;;;;5.81;100.00;93013.13;2110871;28;20876;-88
2021/05/26 03:52:00;;;;;;;5.72;1.65;;;;;;;5.88;100.00;93005.13;2117477;27;20040;-86
2021/05/26 03:53:01;;;;;;;5.22;1.70;;;;;;;5.88;100.00;93007.78;2115754;27;20092;-90
2021/05/26 03:54:02;;;;;;;5.85;1.58;;;;;;;5.85;100.00;93011.22;2114574;28;20421;-88
2021/05/26 03:55:03;;;;;;;8.73;1.67;;;;;;;5.89;100.00;93011.97;2115393;27;20032;-87
2021/05/26 03:56:04;;;;;;;6.50;1.67;;;;;;;5.84;100.00;93004.41;2115036;28;20106;-90
2021/05/26 03:57:06;;;;;;;6.88;1.90;;;;;;;5.89;100.00;93000.59;2109587;28;20114;-87
2021/05/26 03:58:07;;;;;;;6.00;1.48;;;;;;;5.87;100.00;93000.97;2104937;28;20058;-89
2021/05/26 03:59:09;;;;;;;6.35;1.95;;;;;;;5.88;100.00;93005.13;2105910;28;20412;-87
2021/05/26 04:00:12;;;;;;;6.47;1.42;;;;;;;5.85;100.00;93003.28;2118835;27;20556;-86
2021/05/26 04:01:12;;;;;;;4.30;1.40;;;;;;;5.96;100.00;93000.56;2113321;27;20031;-88
2021/05/26 04:02:13;;;;;;;4.10;1.50;;;;;;;5.88;100.00;93007.03;2100658;28;20028;-87
2021/05/26 04:03:14;;;;;;;6.18;1.60;;;;;;;5.94;100.00;93013.47;2098273;28;20029;-86
2021/05/26 04:04:15;;;;;;;6.03;1.65;;;;;;;5.87;100.00;93002.88;2110971;27;20538;-89
2021/05/26 04:05:16;;;;;;;5.65;1.52;;;;;;;5.80;100.00;93014.28;2123449;27;20050;-90
2021/05/26 04:06:17;;;;;;;5.55;1.50;;;;;;;5.79;100.00;93012.75;2117681;27;20465;-87
2021/05/26 04:07:17;;;;;;;7.53;1.90;;;;;;;5.79;100.00;93013.53;2115276;28;20040;-88
2021/05/26 04:08:18;;;;;;;5.97;1.55;;;;;;;5.79;100.00;93008.22;2123505;27;20123;-86
2021/05/26 04:09:20;;;;;;;11.65;1.90;;;;;;;5.78;100.00;93014.66;2114658;28;20523;-88
2021/05/26 04:10:21;;;;;;;5.30;1.80;;;;;;;5.80;100.00;93008.97;2098349;28;20477;-89
2021/05/26 04:11:21;;;;;;;11.32;2.08;;;;;;;5.89;100.00;93006.66;2115015;28;20042;-87
2021/05/26 04:12:24;;;;;;;4.45;1.73;;;;;;;5.91;100.00;93003.59;2106536;28;20031;-89
2021/05/26 04:13:25;;;;;;;4.45;1.50;;;;;;;5.95;100.00;92999.81;2106180;28;20051;-88
2021/05/26 04:14:26;;;;;;;10.52;1.80;;;;;;;5.93;100.00;92996.81;2104698;28;20024;-88
2021/05/26 04:15:27;;;;;;;4.03;1.48;;;;;;;6.01;100.00;93000.94;2115056;28;20019;-87
2021/05/26 04:16:28;;;;;;;11.55;5.05;;;;;;;5.88;100.00;93002.47;2106636;28;20048;-86
2021/05/26 04:17:28;;;;;;;5.05;3.97;;;;;;;5.93;100.00;92996.06;2106571;28;20028;-88
2021/05/26 04:18:29;;;;;;;8.70;3.65;;;;;;;5.92;100.00;93002.47;2109069;28;20020;-89
2021/05/26 04:19:29;;;;;;;7.82;2.83;;;;;;;6.00;100.00;92993.34;2097779;28;20025;-88
2021/05/26 04:20:30;;;;;;;8.63;2.80;;;;;;;6.05;100.00;92998.22;2098001;28;20025;-89
2021/05/26 04:21:31;;;;;;;8.40;2.58;;;;;;;6.12;100.00;92982.28;2098080;28;20028;-86
2021/05/26 04:22:33;;;;;;;8.93;3.10;;;;;;;6.12;100.00;92986.81;2109426;28;20386;-87
2021/05/26 04:23:33;;;;;;;8.05;2.55;;;;;;;6.13;100.00;92981.13;2114951;28;20154;-88
2021/05/26 04:24:34;;;;;;;10.55;2.45;;;;;;;6.13;100.00;92975.06;2114887;28;20016;-88
2021/05/26 04:25:35;;;;;;;4.30;1.88;;;;;;;6.14;100.00;92973.91;2097935;28;20025;-87
2021/05/26 04:26:36;;;;;;;9.10;2.58;;;;;;;6.12;100.00;92982.28;2097975;28;20032;-89
2021/05/26 04:27:37;;;;;;;6.97;1.80;;;;;;;6.15;100.00;92980.75;2098049;28;20051;-86
2021/05/26 04:28:45;;;;;;;9.88;1.80;;;;;;;6.18;100.00;92969.34;2097455;28;20082;-89
2021/05/26 04:29:46;;;;;;;4.82;1.80;;;;;;;6.20;99.75;92969.72;2108613;27;20081;-88
2021/05/26 04:30:48;;;;;;;4.85;1.45;;;;;;;6.29;99.53;92965.47;2106493;28;20061;-88
2021/05/26 04:31:48;;;;;;;5.15;1.65;;;;;;;6.31;97.75;92971.13;2108867;28;20035;-90
2021/05/26 04:32:49;;;;;;;5.13;1.75;;;;;;;6.35;96.42;92983.63;2122732;27;20051;-86
2021/05/26 04:33:50;;;;;;;5.80;2.10;;;;;;;6.32;97.74;92979.84;2114418;28;20032;-88
2021/05/26 04:34:51;;;;;;;11.10;4.30;;;;;;;6.26;99.42;92971.53;2106422;28;20030;-87
2021/05/26 04:35:51;;;;;;;6.05;3.28;;;;;;;6.28;99.76;92973.81;2097690;28;20024;-88
2021/05/26 04:36:52;;;;;;;8.52;2.25;;;;;;;6.35;98.46;92975.66;2114387;28;20127;-86
2021/05/26 04:37:53;;;;;;;6.60;2.22;;;;;;;6.26;99.96;92973.44;2106485;28;20032;-87
2021/05/26 04:38:53;;;;;;;12.50;2.15;;;;;;;6.30;100.00;92972.28;2097605;28;20461;-88
2021/05/26 04:39:54;;;;;;;4.35;1.83;;;;;;;6.25;100.00;92971.94;2106100;28;20818;-86
2021/05/26 04:40:55;;;;;;;9.00;2.17;;;;;;;6.20;100.00;92967.06;2105468;28;20581;-87
2021/05/26 04:41:55;;;;;;;9.65;2.97;;;;;;;6.22;100.00;92960.19;2097583;28;20035;-90
2021/05/26 04:42:56;;;;;;;5.53;2.00;;;;;;;6.24;99.67;92968.53;2104260;28;20051;-88
2021/05/26 04:43:57;;;;;;;6.72;2.90;;;;;;;6.28;99.57;92973.81;2101793;28;20509;-86
2021/05/26 04:44:57;;;;;;;9.20;3.10;;;;;;;6.38;99.14;92970.31;2095462;28;20017;-90
2021/05/26 04:46:00;;;;;;;9.05;2.35;;;;;;;6.37;99.70;92974.13;2097175;28;20025;-88
2021/05/26 04:47:01;;;;;;;7.18;2.70;;;;;;;6.27;100.00;92967.00;2097853;28;20052;-88
2021/05/26 04:48:02;;;;;;;7.93;2.80;;;;;;;6.37;100.00;92979.44;2098593;28;20412;-90
2021/05/26 04:49:03;;;;;;;10.23;2.63;;;;;;;6.31;99.13;92957.84;2105802;28;20030;-85
2021/05/26 04:50:05;;;;;;;7.47;2.63;;;;;;;6.40;98.61;92968.00;2096238;28;20028;-88
2021/05/26 04:51:05;;;;;;;9.38;2.70;;;;;;;6.39;96.88;92966.50;2105980;28;20051;-87
2021/05/26 04:52:06;;;;;;;10.68;2.60;;;;;;;6.34;98.09;92969.59;2110611;28;20081;-87